Garysburg, North Carolina
Current Conditions -  °F | °C
As of 8:35 PM on Tuesday 27 Jan 2015 (Local Time) from KIXA Reporting Station
Overcast Overcast  
Wind Chill: 30°   Ceiling: 5500
Heat Index: 34°   Visibility: 10mi
Dew Point: 30°   Wind: 5mph
Humidity: 87%   Direction: 340°NNW
Pressure: 29.91"   Gusts: NA
Location:  36.45°N, 77.56°W
Report Text: KIXA 280135Z AUTO 34004KT 10SM BKN055 OVC090 01/M01 A2991 RMK AO2
Loading
Personal Weather Stations






























Interactive Weather Map New forecast layout! Learn more

10-Day Weather Forecast

Advertisements
Track Severe Weather on mobile